Terminal Aerodrome Forecast
Issued by NWS

Home | Current Version | Previous Version | Text Only | Print | Product List | Glossary On
Versions: 1 2 3 4 5 6 7 8 9 10 11 12 13 14 15 16 17 18 19 20
000
FTUS43 KMQT 291900 AAA
TAFSAW
TAF AMD
KSAW 291952Z 2920/3018 18009KT 3SM -RA BR OVC003
     FM300500 20005KT 4SM RA BKN010
     FM300900 20005KT 4SM RA BKN008
     FM301600 36007KT 4SM RA BKN010
      AMD LTD TO CLD VIS AND WIND 3002/3010=

USA.gov is the U.S. government's official web portal to all federal, state and local government web resources and services.